createdAt,value
2022-10-20T03:54:49.692Z,42.10
2022-10-20T03:58:13.055Z,59.30
2022-10-20T04:01:36.364Z,54.60
2022-10-20T04:05:00.498Z,65.10
2022-10-20T04:08:23.926Z,48.00
2022-10-20T04:11:47.065Z,91.10
2022-10-20T04:15:12.051Z,84.30
2022-10-20T04:18:35.738Z,74.90
2022-10-20T04:21:59.424Z,60.80
2022-10-20T04:25:22.428Z,50.10
2022-10-20T04:28:46.379Z,46.80
2022-10-20T04:32:09.524Z,44.00
2022-10-20T04:35:32.947Z,45.70
2022-10-20T04:38:56.086Z,44.80
2022-10-20T04:42:20.049Z,46.30
2022-10-20T04:45:43.478Z,45.60
2022-10-20T04:49:06.794Z,42.00
2022-10-20T04:52:30.147Z,38.00
2022-10-20T04:55:55.867Z,41.30
2022-10-20T04:59:19.183Z,40.80
2022-10-20T05:02:42.682Z,38.10
2022-10-20T05:06:12.003Z,37.70
2022-10-20T05:09:35.933Z,41.70
2022-10-20T05:12:59.622Z,43.50
2022-10-20T05:16:23.218Z,37.50
2022-10-20T05:19:46.401Z,40.80
2022-10-20T05:23:09.620Z,41.00
2022-10-20T05:26:36.702Z,37.50
2022-10-20T05:30:02.290Z,42.10
2022-10-20T05:33:25.760Z,43.20
2022-10-20T05:36:51.899Z,39.70
2022-10-20T05:40:15.365Z,43.80
2022-10-20T05:43:39.910Z,43.80
2022-10-20T05:47:03.100Z,48.10
2022-10-20T05:50:26.213Z,45.80
2022-10-20T05:53:49.237Z,48.90
2022-10-20T05:57:12.358Z,52.40
2022-10-20T06:00:41.481Z,47.90
2022-10-20T06:04:05.703Z,46.90
2022-10-20T06:07:29.175Z,46.50
2022-10-20T06:10:52.427Z,38.50
2022-10-20T06:14:17.041Z,34.90
2022-10-20T06:17:40.391Z,32.90
2022-10-20T06:21:05.608Z,31.90
2022-10-20T06:24:28.965Z,29.90
2022-10-20T06:27:52.043Z,28.60
2022-10-20T06:31:17.337Z,32.60
2022-10-20T06:34:41.249Z,32.00
2022-10-20T06:38:04.873Z,28.90
2022-10-20T06:41:28.429Z,28.20
2022-10-20T06:44:51.773Z,28.20
2022-10-20T06:48:14.882Z,27.50
2022-10-20T06:51:38.523Z,25.50
2022-10-20T06:55:01.676Z,24.60
2022-10-20T06:58:24.999Z,21.70
2022-10-20T07:01:48.133Z,22.20
2022-10-20T07:05:11.586Z,21.00
2022-10-20T07:08:36.198Z,21.30
2022-10-20T07:11:59.824Z,19.80
2022-10-20T07:15:23.309Z,19.30
2022-10-20T07:18:47.058Z,20.90
2022-10-20T07:22:10.137Z,19.30
2022-10-20T07:25:33.423Z,17.00
2022-10-20T07:28:58.913Z,16.60
2022-10-20T07:32:22.501Z,17.60
2022-10-20T07:35:45.613Z,16.60
2022-10-20T07:39:10.236Z,16.90
2022-10-20T07:42:33.750Z,16.60
2022-10-20T07:45:57.784Z,16.90
2022-10-20T07:53:05.817Z,17.20
2022-10-20T07:56:30.598Z,17.40
2022-10-20T07:59:54.352Z,17.30
2022-10-20T08:03:17.807Z,17.10
2022-10-20T08:06:40.935Z,16.10
2022-10-20T08:10:05.090Z,16.30
2022-10-20T08:13:29.251Z,16.10
2022-10-20T08:17:03.374Z,14.30
2022-10-20T08:20:29.646Z,13.80
2022-10-20T08:23:53.097Z,12.60
2022-10-20T08:27:16.750Z,12.70
2022-10-20T08:30:39.983Z,13.30
2022-10-20T08:34:03.408Z,11.00
2022-10-20T08:37:29.114Z,13.40
2022-10-20T08:40:52.667Z,11.50
2022-10-20T08:44:21.451Z,10.40
2022-10-20T08:47:47.578Z,10.10
2022-10-20T08:51:18.465Z,7.90
2022-10-20T08:54:42.382Z,8.10
2022-10-20T08:58:11.991Z,7.40
2022-10-20T09:01:36.180Z,6.90
2022-10-20T09:05:01.250Z,6.70
2022-10-20T09:08:28.209Z,6.10
2022-10-20T09:11:52.922Z,5.30
2022-10-20T09:15:19.464Z,5.10
2022-10-20T09:18:42.912Z,5.00
2022-10-20T09:22:07.149Z,4.90
2022-10-20T09:25:30.915Z,5.00
2022-10-20T09:29:12.907Z,5.00
2022-10-20T09:32:47.643Z,4.80
2022-10-20T09:36:16.226Z,4.80
2022-10-20T09:39:54.172Z,5.00
2022-10-20T09:43:19.331Z,4.80
2022-10-20T09:46:48.838Z,4.70
2022-10-20T09:50:21.079Z,3.80
2022-10-20T09:53:52.197Z,4.00
2022-10-20T09:57:19.374Z,3.90
2022-10-20T10:00:45.974Z,3.90
2022-10-20T10:04:31.965Z,3.80
2022-10-20T10:07:59.462Z,4.20
2022-10-20T10:11:25.995Z,4.80
2022-10-20T10:14:53.286Z,3.90
2022-10-20T10:18:22.659Z,3.60
2022-10-20T10:21:48.331Z,4.40
2022-10-20T10:25:17.973Z,4.00
2022-10-20T10:28:41.649Z,3.30
2022-10-20T10:32:15.779Z,3.50
2022-10-20T10:35:42.390Z,3.60
2022-10-20T10:39:12.067Z,4.00
2022-10-20T10:46:18.885Z,3.40
2022-10-20T10:49:55.536Z,3.20
2022-10-20T10:53:29.197Z,3.80
2022-10-20T10:56:56.446Z,3.90
2022-10-20T11:00:31.710Z,3.50
2022-10-20T11:04:15.217Z,3.80
2022-10-20T11:07:45.326Z,4.40
2022-10-20T11:11:19.654Z,4.00
2022-10-20T11:14:50.719Z,4.00
2022-10-20T11:18:22.063Z,3.80
2022-10-20T11:21:56.287Z,3.80
2022-10-20T11:25:30.411Z,3.90
2022-10-20T11:28:55.995Z,3.00
2022-10-20T11:32:26.210Z,3.00
2022-10-20T11:35:55.004Z,2.80
2022-10-20T11:39:25.856Z,2.40
2022-10-20T11:42:55.851Z,2.80
2022-10-20T11:46:26.072Z,2.60
2022-10-20T11:49:49.497Z,2.60
2022-10-20T11:53:39.509Z,2.20
2022-10-20T11:57:13.765Z,2.10
2022-10-20T12:01:00.157Z,2.60
2022-10-20T12:04:37.645Z,2.30
2022-10-20T12:08:29.964Z,1.80
2022-10-20T12:11:58.375Z,2.70
2022-10-20T12:15:23.938Z,1.70
2022-10-20T12:19:06.348Z,2.20
2022-10-20T12:22:42.089Z,1.90
2022-10-20T12:27:00.799Z,1.90
2022-10-20T12:30:44.508Z,1.80
2022-10-20T12:34:23.270Z,1.70
2022-10-20T12:37:55.605Z,1.80
2022-10-20T12:41:28.572Z,1.70
2022-10-20T12:44:52.871Z,1.90
2022-10-20T12:48:23.055Z,2.20
2022-10-20T12:51:50.543Z,2.10
2022-10-20T12:55:19.532Z,2.30
2022-10-20T12:59:22.985Z,2.30
2022-10-20T13:02:51.788Z,2.60
2022-10-20T13:06:40.045Z,2.90
2022-10-20T13:10:17.557Z,2.90
2022-10-20T13:13:50.939Z,3.20
2022-10-20T13:17:22.353Z,2.80
2022-10-20T13:20:53.019Z,2.70
2022-10-20T13:24:18.268Z,2.70
2022-10-20T13:27:41.926Z,3.10
2022-10-20T13:31:17.544Z,3.40
2022-10-20T13:34:46.819Z,3.20
2022-10-20T13:38:19.812Z,4.00
2022-10-20T13:41:52.253Z,3.90
2022-10-20T13:45:24.638Z,4.00
2022-10-20T13:49:05.049Z,3.90
2022-10-20T13:52:33.972Z,4.20
2022-10-20T13:56:02.594Z,4.20
2022-10-20T13:59:27.216Z,3.90
2022-10-20T14:02:58.787Z,4.30
2022-10-20T14:06:33.214Z,4.80
2022-10-20T14:09:58.412Z,3.90
2022-10-20T14:13:26.838Z,4.30
2022-10-20T14:16:53.970Z,3.40
2022-10-20T14:20:21.484Z,4.00
2022-10-20T14:23:46.304Z,4.50
2022-10-20T14:27:17.395Z,3.30
2022-10-20T14:30:41.296Z,3.80
2022-10-20T14:34:04.655Z,6.80
2022-10-20T14:37:31.279Z,3.70
2022-10-20T14:40:56.626Z,4.20
2022-10-20T14:44:30.974Z,4.30
2022-10-20T14:47:58.139Z,7.50
2022-10-20T14:51:53.243Z,7.10
2022-10-20T14:55:33.203Z,6.10
2022-10-20T14:58:59.991Z,6.80
2022-10-20T15:02:26.652Z,5.50
2022-10-20T15:05:52.718Z,7.10
2022-10-20T15:09:29.125Z,7.30
2022-10-20T15:12:55.044Z,8.60
2022-10-20T15:16:35.082Z,10.00
2022-10-20T15:19:58.520Z,13.10
2022-10-20T15:23:23.698Z,8.10
2022-10-20T15:26:47.051Z,7.90
2022-10-20T15:30:17.132Z,7.60
2022-10-20T15:33:40.753Z,6.40
2022-10-20T15:37:04.516Z,7.70
2022-10-20T15:40:28.108Z,8.10
2022-10-20T15:43:51.525Z,9.20
2022-10-20T15:47:14.944Z,7.70
2022-10-20T15:50:39.069Z,7.70
2022-10-20T15:54:02.610Z,8.40
2022-10-20T15:57:25.921Z,8.80
2022-10-20T16:00:49.169Z,8.30
2022-10-20T16:04:22.476Z,8.10
2022-10-20T16:07:45.783Z,10.00
2022-10-20T16:11:09.743Z,8.40
2022-10-20T16:14:33.126Z,8.70
2022-10-20T16:17:56.981Z,10.80
2022-10-20T16:21:20.125Z,12.70
2022-10-20T16:24:43.290Z,14.70
2022-10-20T16:28:06.695Z,14.60
2022-10-20T16:31:29.821Z,17.10
2022-10-20T16:34:52.932Z,16.20
2022-10-20T16:38:16.112Z,17.60
2022-10-20T16:41:39.274Z,18.20
2022-10-20T16:45:02.868Z,19.90
2022-10-20T16:48:26.112Z,19.50
2022-10-20T16:51:49.304Z,20.00
2022-10-20T16:55:12.724Z,21.10
2022-10-20T16:58:36.216Z,24.20
2022-10-20T17:01:59.541Z,27.70
2022-10-20T17:05:26.557Z,25.90
2022-10-20T17:08:50.118Z,25.10
2022-10-20T17:12:13.308Z,27.20
2022-10-20T17:15:36.836Z,27.60
2022-10-20T17:19:02.038Z,29.90
2022-10-20T17:22:25.258Z,30.00
2022-10-20T17:25:49.575Z,24.80
2022-10-20T17:29:13.483Z,31.70
2022-10-20T17:32:37.003Z,27.00
2022-10-20T17:36:01.202Z,24.40
2022-10-20T17:39:24.509Z,24.80
2022-10-20T17:42:47.687Z,22.10
2022-10-20T17:46:13.609Z,23.20
2022-10-20T17:49:37.316Z,23.40
2022-10-20T17:53:00.833Z,23.10
2022-10-20T17:56:26.986Z,22.10
2022-10-20T17:59:53.327Z,20.50
2022-10-20T18:03:17.891Z,21.40
2022-10-20T18:06:41.769Z,22.60
2022-10-20T18:10:06.838Z,22.00
2022-10-20T18:13:30.192Z,23.70
2022-10-20T18:16:53.479Z,20.90
2022-10-20T18:20:16.956Z,23.00
2022-10-20T18:23:43.125Z,24.10
2022-10-20T18:27:06.657Z,22.90
2022-10-20T18:30:29.873Z,23.20
2022-10-20T18:33:56.739Z,22.20
2022-10-20T18:37:19.947Z,23.10
2022-10-20T18:40:43.206Z,23.10
2022-10-20T18:44:09.877Z,23.90
2022-10-20T18:47:33.086Z,23.10
2022-10-20T18:50:59.622Z,22.40
2022-10-20T18:54:23.629Z,22.30
2022-10-20T18:57:50.987Z,20.90
2022-10-20T19:01:16.745Z,19.10
2022-10-20T19:04:40.225Z,18.80
2022-10-20T19:08:03.656Z,17.80
2022-10-20T19:11:29.643Z,18.00
2022-10-20T19:14:54.260Z,16.40
2022-10-20T19:18:17.428Z,16.10
2022-10-20T19:21:40.915Z,15.30
2022-10-20T19:25:05.640Z,15.00
2022-10-20T19:28:29.366Z,14.20
2022-10-20T19:31:54.457Z,13.70
2022-10-20T19:35:17.843Z,13.40
2022-10-20T19:38:41.144Z,13.00
2022-10-20T19:42:06.636Z,12.50
2022-10-20T19:45:30.456Z,14.00
2022-10-20T19:48:53.882Z,12.50
2022-10-20T19:52:17.031Z,13.00
2022-10-20T19:55:40.252Z,13.20
2022-10-20T19:59:05.181Z,12.90
2022-10-20T20:02:28.442Z,12.70
2022-10-20T20:05:58.086Z,12.70
2022-10-20T20:09:21.568Z,12.60
2022-10-20T20:12:45.026Z,13.40
2022-10-20T20:16:08.986Z,14.20
2022-10-20T20:19:32.448Z,13.40
2022-10-20T20:22:56.115Z,12.40
2022-10-20T20:26:19.521Z,13.70
2022-10-20T20:29:43.070Z,14.00
2022-10-20T20:33:06.581Z,13.30
2022-10-20T20:36:30.308Z,13.80
2022-10-20T20:39:53.589Z,13.60
2022-10-20T20:43:16.969Z,13.60
2022-10-20T20:46:40.155Z,14.00
2022-10-20T20:50:05.411Z,15.00
2022-10-20T20:53:28.728Z,14.90
2022-10-20T20:56:52.191Z,14.10
2022-10-20T21:00:15.981Z,15.80
2022-10-20T21:03:40.073Z,15.40
2022-10-20T21:07:03.515Z,16.40
2022-10-20T21:10:26.883Z,16.90
2022-10-20T21:13:51.496Z,16.40
2022-10-20T21:17:14.835Z,17.20
2022-10-20T21:20:38.150Z,16.20
2022-10-20T21:24:03.235Z,16.50
2022-10-20T21:27:26.414Z,17.50
2022-10-20T21:30:50.156Z,17.50
2022-10-20T21:34:13.410Z,18.10
2022-10-20T21:37:36.524Z,18.10
2022-10-20T21:41:04.336Z,15.30
2022-10-20T21:44:27.872Z,18.30
2022-10-20T21:47:55.174Z,17.10
2022-10-20T21:51:20.190Z,18.30
2022-10-20T21:54:43.448Z,18.80
2022-10-20T21:58:06.630Z,18.00
2022-10-20T22:01:30.145Z,19.50
2022-10-20T22:04:53.712Z,19.40
2022-10-20T22:08:16.970Z,20.10
2022-10-20T22:11:42.421Z,19.60
2022-10-20T22:15:07.268Z,18.10
2022-10-20T22:18:30.568Z,18.80
2022-10-20T22:21:54.621Z,18.50
2022-10-20T22:25:17.900Z,19.90
2022-10-20T22:28:41.237Z,20.00
2022-10-20T22:32:05.115Z,19.10
2022-10-20T22:35:28.687Z,19.70
2022-10-20T22:38:52.195Z,17.70
2022-10-20T22:42:15.292Z,17.10
2022-10-20T22:45:38.605Z,14.30
2022-10-20T22:49:01.782Z,16.00
